Time;durP1;ratioP1;P1;durP2;ratioP2;P2;SDS_P1;SDS_P2;PMS_P1;PMS_P2;Temp;Humidity;BMP_temperature;BMP_pressure;BME280_temperature;BME280_humidity;BME280_pressure;Samples;Min_cycle;Max_cycle;Signal;HPM_P1;HPM_P2
2023/08/28 00:00:26;;;;;;;9.13;4.57;;;;;;;13.56;100.00;96231.19;5039527;28;20130;-69
2023/08/28 00:02:51;;;;;;;7.47;4.93;;;;;;;13.56;100.00;96240.22;5042902;28;20041;-69
2023/08/28 00:05:17;;;;;;;10.23;5.30;;;;;;;13.49;100.00;96242.19;5038354;28;20049;-69
2023/08/28 00:07:42;;;;;;;7.78;5.55;;;;;;;13.51;100.00;96243.34;5023374;28;20131;-70
2023/08/28 00:10:08;;;;;;;7.55;5.10;;;;;;;13.49;100.00;96242.19;5038405;28;20041;-68
2023/08/28 00:12:38;;;;;;;8.45;5.60;;;;;;;13.45;100.00;96247.72;5042399;28;20044;-68
2023/08/28 00:15:03;;;;;;;9.70;5.75;;;;;;;13.44;100.00;96262.63;5040580;28;20094;-68
2023/08/28 00:17:30;;;;;;;7.35;5.10;;;;;;;13.44;100.00;96270.09;5041971;28;20045;-68
2023/08/28 00:19:56;;;;;;;8.73;5.07;;;;;;;13.50;100.00;96282.28;5043747;28;20576;-68
2023/08/28 00:22:21;;;;;;;7.88;5.05;;;;;;;13.55;100.00;96279.91;5037594;28;20203;-68
2023/08/28 00:24:47;;;;;;;12.07;5.80;;;;;;;13.53;100.00;96267.72;5043509;28;20132;-68
2023/08/28 00:27:14;;;;;;;10.70;5.38;;;;;;;13.49;100.00;96256.72;5037251;28;20187;-68
2023/08/28 00:29:39;;;;;;;9.88;5.45;;;;;;;13.40;100.00;96250.84;5043723;28;20452;-68
2023/08/28 00:32:05;;;;;;;8.85;5.53;;;;;;;13.44;100.00;96248.09;5039720;28;20049;-68
2023/08/28 00:34:30;;;;;;;9.77;5.80;;;;;;;13.42;100.00;96250.47;5024852;28;20195;-68
2023/08/28 00:36:56;;;;;;;9.18;5.30;;;;;;;13.45;100.00;96258.72;5042871;28;20047;-68
2023/08/28 00:39:21;;;;;;;7.13;5.18;;;;;;;13.46;100.00;96263.00;5038313;28;21505;-68
2023/08/28 00:41:46;;;;;;;10.07;5.43;;;;;;;13.54;100.00;96261.03;5047450;28;20501;-68
2023/08/28 00:44:12;;;;;;;7.28;4.68;;;;;;;13.50;100.00;96263.78;5056049;28;20051;-68
2023/08/28 00:46:38;;;;;;;6.32;4.30;;;;;;;13.51;100.00;96267.34;5061107;28;20045;-68
2023/08/28 00:49:04;;;;;;;6.50;3.97;;;;;;;13.64;100.00;96276.75;5044033;28;20186;-68
2023/08/28 00:51:30;;;;;;;5.75;4.07;;;;;;;13.64;100.00;96279.50;5040709;28;20041;-69
2023/08/28 00:53:56;;;;;;;5.40;3.40;;;;;;;13.59;100.00;96271.63;5042943;28;20041;-68
2023/08/28 00:56:21;;;;;;;4.65;3.35;;;;;;;13.70;100.00;96275.16;5037907;28;21353;-68
2023/08/28 00:58:47;;;;;;;5.68;3.70;;;;;;;13.63;100.00;96279.88;5043271;28;20432;-67
2023/08/28 01:01:13;;;;;;;5.10;2.70;;;;;;;13.35;100.00;96276.00;5037119;28;20040;-67
2023/08/28 01:03:38;;;;;;;4.82;2.65;;;;;;;13.33;100.00;96270.91;5045531;28;20068;-69
2023/08/28 01:06:28;;;;;;;4.38;3.05;;;;;;;13.33;100.00;96264.63;5048399;28;20044;-67
2023/08/28 01:09:06;;;;;;;6.22;3.20;;;;;;;13.36;100.00;96258.31;5042268;28;20040;-70
2023/08/28 01:11:49;;;;;;;5.25;3.38;;;;;;;13.39;100.00;96247.31;5042463;28;20066;-69
2023/08/28 01:14:18;;;;;;;5.50;3.10;;;;;;;13.46;100.00;96248.50;5037091;28;20064;-69
2023/08/28 01:16:45;;;;;;;7.07;3.10;;;;;;;13.53;100.00;96243.75;5042322;28;20044;-69
2023/08/28 01:19:32;;;;;;;3.95;2.67;;;;;;;13.73;100.00;96232.28;5036697;28;20075;-69
2023/08/28 01:22:14;;;;;;;7.03;3.45;;;;;;;13.93;100.00;96230.63;5023303;28;20063;-69
2023/08/28 01:24:45;;;;;;;5.03;2.50;;;;;;;14.02;100.00;96227.44;5041212;28;20394;-69
2023/08/28 01:27:12;;;;;;;4.65;2.20;;;;;;;14.10;100.00;96223.47;5036500;28;20537;-69
2023/08/28 01:29:38;;;;;;;4.43;2.10;;;;;;;14.12;100.00;96215.59;5041916;28;20382;-69
2023/08/28 01:32:04;;;;;;;3.47;2.10;;;;;;;14.17;100.00;96222.66;5039657;28;20044;-69
2023/08/28 01:34:29;;;;;;;3.50;1.98;;;;;;;14.18;100.00;96201.41;5025339;28;20048;-69
2023/08/28 01:37:01;;;;;;;3.72;2.13;;;;;;;14.24;100.00;96195.09;5042295;28;20144;-69
2023/08/28 01:39:38;;;;;;;5.20;2.10;;;;;;;13.99;100.00;96197.19;5036947;28;20515;-69
2023/08/28 01:42:06;;;;;;;5.38;2.10;;;;;;;13.64;100.00;96193.41;5020710;28;20041;-69
2023/08/28 01:44:33;;;;;;;5.15;2.25;;;;;;;13.52;100.00;96183.59;5024045;28;20536;-69
2023/08/28 01:46:59;;;;;;;8.18;1.98;;;;;;;13.36;100.00;96179.34;5041422;28;20044;-69
2023/08/28 01:49:29;;;;;;;3.05;1.77;;;;;;;13.20;100.00;96170.72;5037134;28;20048;-69
2023/08/28 01:51:54;;;;;;;;;;;;;;;13.14;100.00;96164.03;5042155;28;20410;-69
2023/08/28 01:54:20;;;;;;;6.47;2.47;;;;;;;13.13;100.00;96159.75;5036012;28;19913;-68
2023/08/28 01:56:45;;;;;;;3.47;2.05;;;;;;;13.18;100.00;96164.81;5041203;28;20510;-68
2023/08/28 01:59:11;;;;;;;3.58;2.03;;;;;;;13.32;100.00;96161.28;5035777;28;20037;-68
2023/08/28 02:01:36;;;;;;;2.60;1.83;;;;;;;13.44;100.00;96168.31;5040746;28;20136;-68
2023/08/28 02:04:02;;;;;;;3.40;1.77;;;;;;;13.47;100.00;96167.50;5041167;28;20390;-68
2023/08/28 02:06:28;;;;;;;5.15;1.90;;;;;;;13.30;100.00;96158.88;5037804;28;20128;-68
2023/08/28 02:08:53;;;;;;;2.92;1.90;;;;;;;13.27;100.00;96153.41;5041434;28;20052;-67
2023/08/28 02:11:18;;;;;;;4.38;2.05;;;;;;;13.46;100.00;96139.22;5036146;28;20051;-69
2023/08/28 02:13:44;;;;;;;3.88;1.80;;;;;;;13.59;100.00;96134.06;5041243;28;20041;-69
2023/08/28 02:16:10;;;;;;;5.78;1.90;;;;;;;13.72;100.00;96137.94;5015543;22;20048;-67
2023/08/28 02:18:35;;;;;;;2.63;1.85;;;;;;;13.84;100.00;96135.91;5061877;28;20044;-69
2023/08/28 02:21:01;;;;;;;3.38;1.65;;;;;;;13.88;100.00;96131.97;5062228;28;20064;-69
2023/08/28 02:23:26;;;;;;;2.83;1.60;;;;;;;13.90;100.00;96135.09;5057725;28;20040;-68
2023/08/28 02:25:52;;;;;;;5.88;2.10;;;;;;;13.96;100.00;96121.69;5060588;28;20032;-68
2023/08/28 02:28:18;;;;;;;5.78;1.98;;;;;;;13.99;100.00;96134.66;5019889;28;20044;-68
2023/08/28 02:30:47;;;;;;;4.30;1.90;;;;;;;13.99;100.00;96128.34;5043331;28;20555;-70
2023/08/28 02:33:13;;;;;;;2.75;1.67;;;;;;;13.99;100.00;96128.34;5036216;28;20069;-68
2023/08/28 02:35:38;;;;;;;3.72;2.05;;;;;;;14.00;100.00;96130.69;5042161;28;20385;-68
2023/08/28 02:38:08;;;;;;;3.67;2.10;;;;;;;13.93;100.00;96126.00;5037390;28;20049;-68
2023/08/28 02:40:37;;;;;;;5.00;1.88;;;;;;;13.83;100.00;96117.81;5041228;28;20041;-69
2023/08/28 02:43:05;;;;;;;5.17;2.03;;;;;;;13.87;100.00;96122.13;5039590;28;20045;-67
2023/08/28 02:45:39;;;;;;;7.85;2.30;;;;;;;13.98;100.00;96121.28;5041619;28;20287;-68
2023/08/28 02:48:05;;;;;;;6.30;2.05;;;;;;;14.05;100.00;96122.00;5037372;28;20045;-67
2023/08/28 02:50:37;;;;;;;4.50;2.20;;;;;;;14.13;100.00;96120.00;5041136;28;20072;-70
2023/08/28 02:53:03;;;;;;;3.55;2.10;;;;;;;14.08;100.00;96114.91;5040445;28;20036;-72
2023/08/28 02:55:39;;;;;;;3.35;2.20;;;;;;;14.06;100.00;96117.28;5020675;28;20044;-68
2023/08/28 02:58:05;;;;;;;3.38;2.08;;;;;;;14.07;100.00;96116.88;5037672;28;20044;-68
2023/08/28 03:00:30;;;;;;;5.25;2.40;;;;;;;14.12;100.00;96105.44;5041816;28;20044;-68
2023/08/28 03:02:55;;;;;;;4.32;1.92;;;;;;;14.15;100.00;96107.41;5041997;28;20048;-70
2023/08/28 03:05:21;;;;;;;4.88;2.20;;;;;;;14.18;100.00;96107.78;5038112;28;21792;-68
2023/08/28 03:07:47;;;;;;;3.88;2.28;;;;;;;14.20;100.00;96100.66;5043122;28;20051;-70
2023/08/28 03:10:12;;;;;;;3.33;2.20;;;;;;;14.20;100.00;96092.41;5058918;28;20041;-69
2023/08/28 03:12:37;;;;;;;3.03;2.17;;;;;;;14.24;100.00;96092.38;5051765;28;20429;-69
2023/08/28 03:15:03;;;;;;;2.90;2.10;;;;;;;14.22;100.00;96097.50;5024854;28;20128;-68
2023/08/28 03:17:29;;;;;;;5.63;2.45;;;;;;;14.04;100.00;96100.38;5047928;28;20049;-69
2023/08/28 03:19:54;;;;;;;5.15;2.60;;;;;;;13.94;100.00;96096.53;5051268;28;20041;-68
2023/08/28 03:22:20;;;;;;;6.05;2.70;;;;;;;13.70;100.00;96089.97;5027159;28;20493;-69
2023/08/28 03:24:45;;;;;;;5.65;2.60;;;;;;;13.51;100.00;96092.03;5046559;28;20041;-68
2023/08/28 03:27:11;;;;;;;5.72;2.35;;;;;;;13.67;100.00;96072.31;5041110;28;20362;-68
2023/08/28 03:29:36;;;;;;;5.13;2.58;;;;;;;13.86;100.00;96068.25;5044714;28;20045;-67
2023/08/28 03:32:01;;;;;;;4.53;2.63;;;;;;;13.89;100.00;96069.44;5045756;28;20910;-70
2023/08/28 03:34:27;;;;;;;4.25;2.72;;;;;;;13.83;100.00;96073.78;5040407;28;20063;-70
2023/08/28 03:36:52;;;;;;;3.63;2.50;;;;;;;13.76;100.00;96071.88;5045530;28;20051;-69
2023/08/28 03:39:17;;;;;;;3.90;2.70;;;;;;;13.74;100.00;96072.28;5041007;28;20045;-70
2023/08/28 03:41:43;;;;;;;10.18;2.83;;;;;;;13.53;100.00;96066.88;5047434;28;20120;-67
2023/08/28 03:44:08;;;;;;;5.07;2.95;;;;;;;13.27;100.00;96063.47;5041086;28;20056;-68
2023/08/28 03:46:34;;;;;;;4.72;2.63;;;;;;;12.94;100.00;96060.03;5045364;28;20049;-67
2023/08/28 03:48:59;;;;;;;5.55;2.80;;;;;;;12.84;100.00;96057.31;5045582;28;20072;-69
2023/08/28 03:51:24;;;;;;;5.47;2.88;;;;;;;12.67;100.00;96058.94;5040046;28;20559;-68
2023/08/28 03:53:50;;;;;;;9.15;3.13;;;;;;;12.63;100.00;96056.97;5045441;28;20088;-70
2023/08/28 03:56:15;;;;;;;4.65;2.72;;;;;;;12.73;100.00;96065.56;5041242;28;20041;-69
2023/08/28 03:58:40;;;;;;;5.43;3.10;;;;;;;12.66;100.00;96066.41;5030525;28;20040;-69
2023/08/28 04:01:06;;;;;;;5.38;3.33;;;;;;;12.74;100.00;96056.16;5043767;28;20201;-69
2023/08/28 04:03:31;;;;;;;4.63;3.33;;;;;;;12.78;100.00;96062.44;5027539;28;20041;-68
2023/08/28 04:06:00;;;;;;;4.47;3.17;;;;;;;12.94;100.00;96046.28;5065573;28;20044;-69
2023/08/28 04:08:25;;;;;;;5.85;3.40;;;;;;;13.14;100.00;96043.06;5054354;28;20037;-67
2023/08/28 04:10:53;;;;;;;4.78;3.17;;;;;;;13.20;100.00;96038.75;5046835;28;20375;-69
2023/08/28 04:13:18;;;;;;;7.38;4.18;;;;;;;13.15;100.00;96026.19;5039852;28;20072;-69
2023/08/28 04:15:44;;;;;;;5.43;4.10;;;;;;;13.19;100.00;96029.69;5044456;28;20140;-69
2023/08/28 04:18:09;;;;;;;7.50;4.30;;;;;;;13.24;100.00;96025.75;5040796;28;20053;-69
2023/08/28 04:20:35;;;;;;;5.43;4.07;;;;;;;13.41;100.00;96021.34;5026668;28;20049;-68
2023/08/28 04:23:00;;;;;;;7.45;4.05;;;;;;;13.52;100.00;96018.53;5045843;28;20128;-67
2023/08/28 04:25:29;;;;;;;6.35;3.30;;;;;;;13.57;100.00;96027.16;5039231;28;20380;-67
2023/08/28 04:27:54;;;;;;;4.57;3.20;;;;;;;13.58;100.00;96025.97;5023098;28;20059;-67
2023/08/28 04:30:19;;;;;;;4.50;3.10;;;;;;;13.68;100.00;96026.31;5040841;28;20497;-70
2023/08/28 04:32:45;;;;;;;4.70;2.83;;;;;;;13.68;100.00;96018.81;5043556;28;20049;-70
2023/08/28 04:35:10;;;;;;;4.90;2.80;;;;;;;13.72;100.00;96025.13;5039641;28;20370;-70
2023/08/28 04:37:36;;;;;;;5.88;2.70;;;;;;;13.58;100.00;96025.97;5044415;28;20037;-69
2023/08/28 04:40:01;;;;;;;3.38;2.60;;;;;;;13.55;100.00;96028.75;5054060;28;20051;-69
2023/08/28 04:42:26;;;;;;;4.40;2.13;;;;;;;13.70;100.00;96024.75;5058679;28;20066;-68
2023/08/28 04:44:52;;;;;;;5.72;2.50;;;;;;;13.73;100.00;96026.66;5044414;28;20047;-70
2023/08/28 04:47:17;;;;;;;5.10;2.33;;;;;;;13.74;100.00;96031.00;5039729;28;20126;-69
2023/08/28 04:49:43;;;;;;;4.75;2.58;;;;;;;13.75;100.00;96037.28;5043236;28;20041;-68
2023/08/28 04:52:10;;;;;;;6.00;2.42;;;;;;;13.63;100.00;96027.53;5037701;28;20123;-69
2023/08/28 04:54:36;;;;;;;4.07;1.98;;;;;;;13.63;100.00;96030.28;5043555;28;20124;-69
2023/08/28 04:57:01;;;;;;;4.20;2.40;;;;;;;13.67;100.00;96035.78;5025319;28;20045;-68
2023/08/28 04:59:27;;;;;;;4.22;2.50;;;;;;;13.60;100.00;96022.81;5041794;28;20052;-66
2023/08/28 05:01:52;;;;;;;6.47;2.17;;;;;;;13.65;100.00;96016.91;5025245;28;20044;-67
2023/08/28 05:04:18;;;;;;;4.15;2.00;;;;;;;13.65;100.00;96027.09;5038487;28;20037;-68
2023/08/28 05:06:43;;;;;;;2.88;1.85;;;;;;;13.50;100.00;96035.44;5043666;28;20367;-68
2023/08/28 05:09:10;;;;;;;5.32;2.15;;;;;;;13.52;100.00;96011.09;5038975;28;20064;-67
2023/08/28 05:11:36;;;;;;;3.35;2.03;;;;;;;13.50;100.00;95996.94;5049777;28;20090;-67
2023/08/28 05:14:01;;;;;;;3.97;2.03;;;;;;;13.43;100.00;95993.44;5047630;28;20048;-69
2023/08/28 05:16:26;;;;;;;2.75;2.00;;;;;;;13.17;100.00;95993.56;5040033;28;20052;-69
2023/08/28 05:18:52;;;;;;;3.30;2.00;;;;;;;13.29;100.00;95981.34;5044074;28;20160;-69
2023/08/28 05:21:17;;;;;;;5.85;2.30;;;;;;;13.29;100.00;95986.84;5038649;28;20452;-69
2023/08/28 05:23:43;;;;;;;3.17;2.08;;;;;;;13.16;100.00;95981.00;5042242;28;20044;-69
2023/08/28 05:26:08;;;;;;;2.42;1.80;;;;;;;13.37;100.00;95962.84;5018906;28;20097;-66
2023/08/28 05:28:37;;;;;;;3.65;1.92;;;;;;;13.30;100.00;95949.88;5025511;28;20382;-70
2023/08/28 05:31:03;;;;;;;3.07;2.23;;;;;;;12.92;100.00;95929.69;5039868;28;20044;-66
2023/08/28 05:33:30;;;;;;;4.40;2.17;;;;;;;13.13;100.00;95928.81;5041903;28;20056;-67
2023/08/28 05:35:55;;;;;;;4.85;2.45;;;;;;;13.15;100.00;95934.66;5044452;28;20053;-70
2023/08/28 05:38:21;;;;;;;5.15;2.40;;;;;;;13.13;100.00;95940.56;5038957;28;20065;-69
2023/08/28 05:40:46;;;;;;;4.25;2.33;;;;;;;13.23;100.00;95949.94;5043150;28;20068;-69
2023/08/28 05:43:12;;;;;;;3.60;2.45;;;;;;;13.27;100.00;95961.72;5039141;28;20433;-69
2023/08/28 05:45:38;;;;;;;8.63;2.28;;;;;;;13.16;100.00;95944.47;5026430;28;20182;-70
2023/08/28 05:48:04;;;;;;;4.43;1.95;;;;;;;13.24;100.00;95931.47;5039052;28;20100;-68
2023/08/28 05:50:29;;;;;;;3.10;1.95;;;;;;;13.05;100.00;95947.28;5043335;28;20068;-70
2023/08/28 05:52:55;;;;;;;5.45;2.58;;;;;;;12.95;100.00;95962.66;5045181;28;20056;-70
2023/08/28 05:55:20;;;;;;;3.83;2.30;;;;;;;12.93;100.00;95956.00;5046258;28;20494;-70
2023/08/28 05:57:46;;;;;;;5.60;2.47;;;;;;;13.04;100.00;95945.72;5049099;28;20101;-68
2023/08/28 06:00:13;;;;;;;3.67;2.00;;;;;;;12.76;100.00;95944.66;5039216;28;20094;-68
2023/08/28 06:02:41;;;;;;;4.53;2.45;;;;;;;12.89;100.00;95935.97;5043274;28;20041;-70
2023/08/28 06:05:07;;;;;;;4.85;2.30;;;;;;;12.94;100.00;95950.09;5038734;28;20047;-68
2023/08/28 06:07:33;;;;;;;2.78;2.00;;;;;;;13.15;100.00;95953.91;5043049;28;20109;-68
2023/08/28 06:09:59;;;;;;;3.22;2.30;;;;;;;13.14;100.00;95955.09;5042682;28;20130;-68
2023/08/28 06:12:24;;;;;;;4.03;2.30;;;;;;;13.12;100.00;95954.72;5039361;28;20107;-69
2023/08/28 06:14:50;;;;;;;2.80;2.00;;;;;;;13.16;100.00;95953.53;5057400;28;20045;-69
2023/08/28 06:17:16;;;;;;;3.10;2.10;;;;;;;13.11;100.00;95948.44;5043667;28;20055;-68
2023/08/28 06:19:41;;;;;;;3.83;2.08;;;;;;;12.89;100.00;95952.47;5044668;28;20041;-70
2023/08/28 06:22:07;;;;;;;5.45;2.55;;;;;;;13.03;100.00;95952.41;5039285;28;20536;-67
2023/08/28 06:24:32;;;;;;;3.20;1.83;;;;;;;13.11;100.00;95955.91;5043750;28;20041;-69
2023/08/28 06:26:58;;;;;;;2.55;1.75;;;;;;;13.13;100.00;95959.03;5045188;28;20041;-69
2023/08/28 06:29:24;;;;;;;3.22;2.00;;;;;;;13.12;100.00;95944.50;5050333;28;20083;-69
2023/08/28 06:31:50;;;;;;;3.17;2.03;;;;;;;13.34;100.00;95945.19;5054327;28;20047;-69
2023/08/28 06:34:15;;;;;;;3.58;2.03;;;;;;;13.09;100.00;95931.56;5040826;28;20495;-68
2023/08/28 06:36:41;;;;;;;4.07;2.45;;;;;;;12.88;100.00;95937.19;5042247;28;20045;-69
2023/08/28 06:39:07;;;;;;;3.13;1.85;;;;;;;12.89;100.00;95925.00;5037270;28;20045;-67
2023/08/28 06:41:33;;;;;;;2.83;2.13;;;;;;;12.94;100.00;95889.63;5044185;28;20041;-68
2023/08/28 06:44:00;;;;;;;5.15;2.22;;;;;;;13.10;100.00;95880.88;5041295;28;20037;-68
2023/08/28 06:46:26;;;;;;;3.75;1.70;;;;;;;12.92;100.00;95892.00;5018586;28;20052;-68
2023/08/28 06:48:52;;;;;;;4.68;2.20;;;;;;;12.92;100.00;95904.97;5041407;28;20041;-69
2023/08/28 06:51:20;;;;;;;4.35;2.05;;;;;;;12.95;100.00;95915.94;5038439;28;20037;-68
2023/08/28 06:53:46;;;;;;;4.05;1.92;;;;;;;13.27;100.00;95916.91;5046658;28;20134;-68
2023/08/28 06:56:11;;;;;;;2.33;1.75;;;;;;;13.24;100.00;95929.50;5041177;28;20497;-69
2023/08/28 06:58:37;;;;;;;2.65;2.00;;;;;;;13.08;100.00;95932.75;5027922;28;20040;-69
2023/08/28 07:01:02;;;;;;;2.67;1.70;;;;;;;13.01;100.00;95938.28;5044910;28;20599;-69
2023/08/28 07:03:28;;;;;;;3.42;1.80;;;;;;;12.91;100.00;95934.41;5043121;28;20049;-68
2023/08/28 07:05:53;;;;;;;2.47;1.80;;;;;;;12.97;100.00;95935.53;5045704;28;20084;-69
2023/08/28 07:08:18;;;;;;;6.43;2.08;;;;;;;12.87;100.00;95949.34;5022728;28;20041;-68
2023/08/28 07:10:44;;;;;;;2.60;1.60;;;;;;;12.93;100.00;95954.03;5045231;28;20045;-68
2023/08/28 07:13:09;;;;;;;2.70;1.75;;;;;;;12.98;100.00;95966.56;5022414;28;20141;-68
2023/08/28 07:15:34;;;;;;;3.47;1.70;;;;;;;12.84;100.00;95972.91;5026576;28;20040;-69
2023/08/28 07:18:00;;;;;;;3.13;1.90;;;;;;;12.86;100.00;95970.56;5041636;28;20518;-69
2023/08/28 07:20:26;;;;;;;3.60;2.00;;;;;;;12.88;100.00;95973.69;5042042;28;20040;-69
2023/08/28 07:22:53;;;;;;;3.47;2.20;;;;;;;12.71;100.00;95969.84;5044856;28;20036;-69
2023/08/28 07:25:22;;;;;;;3.88;2.13;;;;;;;12.62;100.00;95963.97;5041289;28;20061;-69
2023/08/28 07:27:49;;;;;;;4.65;2.35;;;;;;;12.57;100.00;95976.16;5026250;28;20040;-68
2023/08/28 07:30:14;;;;;;;3.40;1.75;;;;;;;12.68;100.00;95967.88;5021995;28;20525;-71
2023/08/28 07:32:40;;;;;;;4.68;2.42;;;;;;;12.57;100.00;95962.41;5045006;28;20080;-68
2023/08/28 07:35:06;;;;;;;2.97;2.13;;;;;;;12.53;100.00;95966.34;5040632;28;20075;-68
2023/08/28 07:37:36;;;;;;;4.20;2.50;;;;;;;12.44;100.00;95972.25;5044351;28;20041;-67
2023/08/28 07:40:05;;;;;;;3.05;2.42;;;;;;;12.36;100.00;95974.25;5045917;28;20056;-68
2023/08/28 07:42:32;;;;;;;6.85;2.88;;;;;;;12.37;100.00;95980.50;5044796;28;20120;-70
2023/08/28 07:44:58;;;;;;;3.20;2.35;;;;;;;12.27;100.00;95979.34;5046720;28;20041;-70
2023/08/28 07:47:23;;;;;;;3.42;2.55;;;;;;;12.30;100.00;95983.25;5040418;28;20286;-69
2023/08/28 07:49:48;;;;;;;4.25;2.88;;;;;;;12.30;100.00;95986.81;5032445;28;20478;-70
2023/08/28 07:52:14;;;;;;;3.90;2.42;;;;;;;12.34;100.00;95975.81;5040128;28;20127;-70
2023/08/28 07:54:39;;;;;;;3.70;2.50;;;;;;;12.37;100.00;95977.75;5044161;28;20037;-67
2023/08/28 07:57:05;;;;;;;6.30;2.28;;;;;;;12.38;100.00;95984.84;5040893;28;20067;-68
2023/08/28 07:59:30;;;;;;;3.92;2.40;;;;;;;12.46;100.00;95980.91;5027301;28;20049;-68
2023/08/28 08:01:57;;;;;;;3.38;2.10;;;;;;;12.51;100.00;95980.47;5046013;28;20075;-69
2023/08/28 08:04:23;;;;;;;4.15;1.90;;;;;;;12.68;100.00;95981.63;5022162;28;20049;-69
2023/08/28 08:06:49;;;;;;;4.38;2.33;;;;;;;12.79;100.00;95987.06;5027251;28;20044;-69
2023/08/28 08:09:14;;;;;;;3.22;1.90;;;;;;;12.82;100.00;95986.28;5044649;28;20057;-70
2023/08/28 08:11:39;;;;;;;2.30;1.70;;;;;;;12.88;100.00;95986.66;5049823;28;20041;-69
2023/08/28 08:14:05;;;;;;;2.75;1.52;;;;;;;12.91;100.00;95985.81;5007865;28;20060;-64
2023/08/28 08:16:30;;;;;;;2.28;1.60;;;;;;;12.87;100.00;95985.84;5044799;28;20045;-70
2023/08/28 08:18:56;;;;;;;1.85;1.45;;;;;;;13.06;100.00;95968.09;5044606;28;20543;-68
2023/08/28 08:21:21;;;;;;;3.40;1.58;;;;;;;13.14;100.00;95966.09;5040736;28;20515;-70
2023/08/28 08:23:48;;;;;;;2.13;1.20;;;;;;;12.96;100.00;95972.47;5044411;28;20052;-70
2023/08/28 08:26:14;;;;;;;3.28;1.50;;;;;;;13.05;100.00;95976.75;5031032;28;20037;-69
2023/08/28 08:28:40;;;;;;;9.85;1.83;;;;;;;13.37;100.00;95971.09;5043269;28;20052;-69
2023/08/28 08:31:05;;;;;;;4.75;1.60;;;;;;;13.59;100.00;95960.72;5040183;28;20376;-70
2023/08/28 08:33:31;;;;;;;4.97;1.30;;;;;;;13.68;100.00;95958.28;5027309;28;20044;-68
2023/08/28 08:35:56;;;;;;;3.92;1.30;;;;;;;13.69;100.00;95948.84;5046029;28;20127;-68
2023/08/28 08:38:21;;;;;;;1.60;1.08;;;;;;;13.95;100.00;95932.91;5023517;28;20495;-69
2023/08/28 08:40:51;;;;;;;1.67;1.15;;;;;;;14.34;100.00;95929.00;5046410;28;20378;-70
2023/08/28 08:43:17;;;;;;;2.58;1.10;;;;;;;14.22;100.00;95924.78;5042495;28;20068;-69
2023/08/28 08:45:45;;;;;;;2.00;1.25;;;;;;;14.86;100.00;95919.75;5047084;28;20083;-70
2023/08/28 08:48:14;;;;;;;2.38;1.10;;;;;;;14.71;100.00;95916.38;5041792;28;20040;-69
2023/08/28 08:50:40;;;;;;;2.37;0.90;;;;;;;15.32;100.00;95899.00;5055503;28;20052;-70
2023/08/28 08:53:16;;;;;;;3.05;1.33;;;;;;;15.78;100.00;95891.22;5060662;28;20059;-67
2023/08/28 08:55:46;;;;;;;2.28;1.20;;;;;;;15.31;100.00;95891.16;5061887;28;20040;-70
2023/08/28 08:58:14;;;;;;;1.85;1.33;;;;;;;15.46;100.00;95882.22;5045877;28;20045;-68
2023/08/28 09:00:43;;;;;;;2.22;1.25;;;;;;;16.55;100.00;95875.59;5029360;28;20053;-69
2023/08/28 09:03:09;;;;;;;2.40;1.30;;;;;;;17.18;100.00;95874.66;5024363;28;20036;-69
2023/08/28 09:05:38;;;;;;;1.77;1.20;;;;;;;17.08;100.00;95873.69;5045782;28;20041;-69
2023/08/28 09:08:05;;;;;;;2.17;1.10;;;;;;;16.28;100.00;95879.28;5042863;28;20037;-66
2023/08/28 09:10:31;;;;;;;2.55;1.27;;;;;;;15.71;100.00;95877.50;5049546;28;20127;-69
2023/08/28 09:12:57;;;;;;;1.50;1.08;;;;;;;14.80;100.00;95874.53;5036060;28;20041;-68
2023/08/28 09:15:23;;;;;;;2.60;1.00;;;;;;;14.54;100.00;95876.81;5031572;28;20151;-69
2023/08/28 09:17:49;;;;;;;3.15;1.45;;;;;;;14.51;100.00;95875.66;5037070;28;20045;-70
2023/08/28 09:20:16;;;;;;;2.70;1.52;;;;;;;13.87;100.00;95863.38;5054920;28;20045;-69
2023/08/28 09:22:53;;;;;;;2.08;1.30;;;;;;;14.17;100.00;95864.66;5055065;28;20049;-70
2023/08/28 09:25:20;;;;;;;2.15;1.35;;;;;;;14.33;100.00;95873.13;5051119;28;20044;-69
2023/08/28 09:27:51;;;;;;;2.78;1.30;;;;;;;14.60;100.00;95874.41;5046486;28;20247;-70
2023/08/28 09:30:28;;;;;;;2.25;1.30;;;;;;;14.33;100.00;95859.34;5040094;28;20082;-68
2023/08/28 09:32:54;;;;;;;2.42;1.30;;;;;;;14.26;100.00;95850.38;5045478;28;20725;-68
2023/08/28 09:35:20;;;;;;;2.97;1.20;;;;;;;14.34;100.00;95854.63;5043400;28;20136;-67
2023/08/28 09:37:55;;;;;;;2.33;1.17;;;;;;;14.21;100.00;95865.41;5048995;28;20053;-69
2023/08/28 09:40:29;;;;;;;4.85;1.45;;;;;;;13.86;100.00;95864.56;5041684;28;20040;-68
2023/08/28 09:42:55;;;;;;;2.58;1.33;;;;;;;13.80;100.00;95866.22;5047245;28;20032;-68
2023/08/28 09:45:20;;;;;;;2.95;1.40;;;;;;;13.87;100.00;95881.88;5038835;28;20493;-69
2023/08/28 09:47:51;;;;;;;2.42;1.20;;;;;;;13.64;100.00;95864.00;5045499;28;20041;-70
2023/08/28 09:50:22;;;;;;;2.75;1.23;;;;;;;13.78;100.00;95865.84;5039615;28;20087;-67
2023/08/28 09:52:48;;;;;;;3.35;1.30;;;;;;;13.93;100.00;95870.00;5044958;28;20040;-69
2023/08/28 09:55:13;;;;;;;3.42;1.30;;;;;;;13.74;100.00;95863.13;5039950;28;20052;-69
2023/08/28 09:57:42;;;;;;;1.92;1.05;;;;;;;13.86;100.00;95869.28;5045146;28;20128;-69
2023/08/28 10:00:08;;;;;;;3.50;1.38;;;;;;;13.88;100.00;95844.88;5040364;28;20103;-67
2023/08/28 10:02:34;;;;;;;2.28;1.15;;;;;;;13.81;100.00;95848.50;5042240;28;20049;-68
2023/08/28 10:05:02;;;;;;;2.45;1.45;;;;;;;13.89;100.00;95846.47;5029272;28;20397;-67
2023/08/28 10:07:29;;;;;;;2.42;1.20;;;;;;;13.70;100.00;95847.81;5043307;28;20091;-69
2023/08/28 10:09:59;;;;;;;3.92;1.38;;;;;;;13.99;100.00;95847.53;5043461;28;20085;-69
2023/08/28 10:12:26;;;;;;;;;;;;;;;14.11;100.00;95847.78;5039171;28;20048;-69
2023/08/28 10:14:53;;;;;;;3.90;1.30;;;;;;;14.03;100.00;95843.56;5043801;28;19912;-69
2023/08/28 10:17:20;;;;;;;3.13;1.23;;;;;;;13.84;100.00;95844.94;5038325;28;20552;-70
2023/08/28 10:19:47;;;;;;;2.30;1.10;;;;;;;13.83;100.00;95848.09;5043515;28;20052;-68
2023/08/28 10:22:12;;;;;;;1.92;0.90;;;;;;;13.83;100.00;95859.09;5037272;28;20041;-69
2023/08/28 10:24:42;;;;;;;2.50;1.40;;;;;;;14.14;100.00;95863.50;5042909;28;20132;-69
2023/08/28 10:27:10;;;;;;;2.38;1.40;;;;;;;14.11;100.00;95858.78;5038758;28;20085;-69
2023/08/28 10:29:37;;;;;;;2.45;1.42;;;;;;;14.25;100.00;95852.34;5042074;28;20045;-69
2023/08/28 10:32:08;;;;;;;2.13;1.25;;;;;;;14.37;100.00;95856.56;5022630;28;20041;-68
2023/08/28 10:34:42;;;;;;;2.22;1.33;;;;;;;14.07;100.00;95855.31;5024456;28;20132;-69
2023/08/28 10:37:12;;;;;;;3.17;1.30;;;;;;;14.39;100.00;95851.41;5021929;28;20133;-67
2023/08/28 10:39:41;;;;;;;3.03;1.25;;;;;;;14.45;100.00;95841.47;5042753;28;20084;-69
2023/08/28 10:42:09;;;;;;;2.30;1.10;;;;;;;14.50;100.00;95851.28;5037741;28;20124;-68
2023/08/28 10:44:35;;;;;;;3.55;1.45;;;;;;;14.59;100.00;95850.81;5041631;28;20052;-68
2023/08/28 10:47:01;;;;;;;2.28;1.30;;;;;;;14.61;100.00;95851.94;5024457;28;20080;-69
2023/08/28 10:49:27;;;;;;;3.72;1.30;;;;;;;14.59;100.00;95865.34;5038155;28;20454;-68
2023/08/28 10:52:05;;;;;;;2.90;1.27;;;;;;;14.27;100.00;95860.22;5046842;28;20049;-68
2023/08/28 10:54:43;;;;;;;3.72;1.42;;;;;;;14.38;100.00;95854.56;5048261;28;20048;-69
2023/08/28 10:57:22;;;;;;;3.75;1.30;;;;;;;14.56;100.00;95860.63;5035633;28;20045;-67
2023/08/28 10:59:49;;;;;;;2.28;1.33;;;;;;;14.42;100.00;95864.38;5042519;28;20147;-69
2023/08/28 11:02:15;;;;;;;3.63;1.30;;;;;;;14.85;100.00;95854.78;5037698;28;20040;-67
2023/08/28 11:04:41;;;;;;;2.88;1.35;;;;;;;15.19;100.00;95843.63;5042484;28;20037;-68
2023/08/28 11:07:27;;;;;;;3.75;1.42;;;;;;;15.42;100.00;95847.63;5037232;28;20048;-68
2023/08/28 11:10:17;;;;;;;3.95;1.70;;;;;;;15.84;100.00;95845.34;5041975;28;20056;-70
2023/08/28 11:12:51;;;;;;;2.72;1.40;;;;;;;15.10;100.00;95843.38;5025309;28;20045;-69
2023/08/28 11:15:25;;;;;;;3.05;1.45;;;;;;;15.57;100.00;95839.88;5047332;28;20049;-69
2023/08/28 11:18:14;;;;;;;3.85;1.63;;;;;;;15.76;100.00;95841.94;5037967;28;20045;-69
2023/08/28 11:20:39;;;;;;;2.13;1.10;;;;;;;15.82;100.00;95839.47;5042340;28;20044;-69
2023/08/28 11:23:05;;;;;;;1.85;1.20;;;;;;;15.73;100.00;95834.47;5017342;28;20045;-67
2023/08/28 11:25:39;;;;;;;4.57;2.00;;;;;;;15.75;100.00;95828.56;5040026;28;20131;-69